Time;durP1;ratioP1;P1;durP2;ratioP2;P2;SDS_P1;SDS_P2;PMS_P1;PMS_P2;Temp;Humidity;BMP_temperature;BMP_pressure;BME280_temperature;BME280_humidity;BME280_pressure;Samples;Min_cycle;Max_cycle;Signal;HPM_P1;HPM_P2
2022/04/17 00:01:24;;;;;;;1.87;1.77;;;;;;;13.75;46.37;97895.81;4891094;29;20218;-94
2022/04/17 00:06:27;;;;;;;2.20;2.00;;;;;;;15.57;46.76;98125.19;4179546;27;20205;-92
2022/04/17 00:08:54;;;;;;;2.30;2.10;;;;;;;15.31;47.25;98104.94;4917073;29;20216;-94
2022/04/17 00:11:21;;;;;;;4.13;2.40;;;;;;;15.24;46.58;98070.75;4922145;29;20245;-94
2022/04/17 00:13:50;;;;;;;1.90;1.80;;;;;;;16.42;45.89;98289.38;4904648;29;20404;-95
2022/04/17 00:16:19;;;;;;;2.40;1.90;;;;;;;14.21;45.69;97979.75;4891201;29;20182;-94
2022/04/17 00:18:46;;;;;;;2.77;2.00;;;;;;;13.75;46.60;97797.31;4912321;23;20233;-93
2022/04/17 00:21:13;;;;;;;2.17;1.90;;;;;;;17.90;46.27;98578.78;4884508;29;20227;-94
2022/04/17 00:23:46;;;;;;;2.20;2.00;;;;;;;15.57;46.37;98158.13;4854434;29;20200;-93
2022/04/17 00:26:15;;;;;;;1.97;1.87;;;;;;;17.88;46.48;98609.22;4893482;23;20246;-94
2022/04/17 00:28:42;;;;;;;1.87;1.77;;;;;;;13.61;46.31;97788.88;4844013;29;20183;-93
2022/04/17 00:31:09;;;;;;;2.03;1.93;;;;;;;16.22;46.64;98272.03;4884013;29;20263;-94
2022/04/17 00:33:36;;;;;;;1.90;1.80;;;;;;;15.51;47.23;98119.75;4868706;29;20227;-93
2022/04/17 00:36:02;;;;;;;2.10;1.90;;;;;;;14.14;46.71;97863.00;4884232;29;20202;-94
2022/04/17 00:38:30;;;;;;;1.87;1.77;;;;;;;18.12;46.12;98618.31;4853762;29;20187;-92
2022/04/17 00:41:00;;;;;;;1.97;1.77;;;;;;;15.64;46.32;98160.25;4868460;29;20195;-95
2022/04/17 00:43:30;;;;;;;2.30;2.10;;;;;;;15.88;46.40;98189.63;4883878;29;20187;-93
2022/04/17 00:54:07;;;;;;;1.83;1.73;;;;;;;17.64;46.23;98469.56;4253645;27;20218;-93
2022/04/17 00:56:34;;;;;;;2.33;1.90;;;;;;;12.77;46.15;97600.00;4892239;29;20387;-94
2022/04/17 00:59:14;;;;;;;2.60;2.30;;;;;;;13.04;46.08;97646.34;4921953;29;20182;-92
2022/04/17 01:01:40;;;;;;;1.90;1.80;;;;;;;16.86;46.31;98365.69;4904373;29;20202;-93
2022/04/17 01:04:10;;;;;;;1.90;1.80;;;;;;;15.59;46.36;98104.22;4895699;29;20219;-93
2022/04/17 01:06:46;;;;;;;2.20;2.00;;;;;;;15.65;45.75;98109.66;4889351;29;20183;-93
2022/04/17 01:09:16;;;;;;;1.70;1.60;;;;;;;13.43;46.96;97762.44;4890725;29;20210;-92
2022/04/17 01:11:51;;;;;;;2.20;2.00;;;;;;;15.27;46.11;98101.31;4892531;29;20213;-93
2022/04/17 01:14:20;;;;;;;2.07;1.97;;;;;;;12.81;46.52;97607.00;4874964;29;20210;-94
2022/04/17 01:16:47;;;;;;;1.80;1.70;;;;;;;15.46;47.27;98076.41;4883241;29;20243;-94
2022/04/17 01:19:14;;;;;;;2.20;2.00;;;;;;;13.75;46.14;97765.38;4871966;29;20190;-93
2022/04/17 01:21:42;;;;;;;2.27;2.07;;;;;;;15.37;46.28;98031.88;4877791;29;20191;-94
2022/04/17 01:26:56;;;;;;;2.10;1.90;;;;;;;13.47;46.64;97724.00;4904651;29;20175;-91
2022/04/17 01:29:23;;;;;;;2.00;1.90;;;;;;;19.21;46.43;98694.41;4871792;29;20201;-94
2022/04/17 01:31:53;;;;;;;3.30;2.20;;;;;;;15.56;46.19;98071.09;4886697;29;20250;-94
2022/04/17 01:34:21;;;;;;;2.10;1.87;;;;;;;13.70;46.37;97738.06;4871660;29;20242;-93
2022/04/17 01:36:49;;;;;;;2.37;2.17;;;;;;;15.18;45.89;98054.28;4877383;29;20187;-94
2022/04/17 01:39:17;;;;;;;2.27;1.80;;;;;;;19.21;45.40;98739.41;4893838;29;20183;-93
2022/04/17 01:41:46;;;;;;;2.10;1.90;;;;;;;15.57;46.56;98059.34;4881839;29;20187;-94
2022/04/17 01:44:13;;;;;;;2.00;1.80;;;;;;;12.90;46.21;97587.44;4859579;29;20272;-92
2022/04/17 01:51:57;;;;;;;2.07;1.97;;;;;;;17.74;45.97;98460.03;4256673;27;20197;-94
2022/04/17 01:56:59;;;;;;;2.13;2.00;;;;;;;14.71;46.58;97909.63;4258790;27;20230;-93
2022/04/17 01:59:26;;;;;;;1.90;1.80;;;;;;;14.03;44.70;97874.06;4904497;29;20186;-94
2022/04/17 02:01:54;;;;;;;2.47;1.97;;;;;;;13.22;46.34;97649.16;4893204;29;20214;-94
2022/04/17 02:04:22;;;;;;;4.30;2.07;;;;;;;16.91;46.53;98305.94;4899759;29;20203;-92
2022/04/17 02:06:49;;;;;;;2.10;1.90;;;;;;;16.66;45.86;98288.34;4893479;29;20182;-94
2022/04/17 02:09:16;;;;;;;2.07;1.90;;;;;;;14.69;46.34;97942.44;4878022;29;20194;-93
2022/04/17 02:11:43;;;;;;;2.20;2.00;;;;;;;15.60;44.58;98056.97;4895172;23;20226;-94
2022/04/17 02:14:10;;;;;;;2.30;2.07;;;;;;;14.47;46.34;97901.41;4879161;29;20239;-94
2022/04/17 02:19:19;;;;;;;2.20;2.00;;;;;;;14.13;46.00;97762.69;3123925;27;20262;-92
2022/04/17 02:21:46;;;;;;;2.63;1.90;;;;;;;14.57;46.58;97893.63;4909807;29;20197;-93
2022/04/17 02:24:17;;;;;;;1.93;1.83;;;;;;;15.55;45.63;98033.03;4893749;29;20275;-93
2022/04/17 02:26:43;;;;;;;2.20;2.00;;;;;;;13.86;46.21;97743.31;4908585;29;20201;-94
2022/04/17 02:29:10;;;;;;;1.80;1.70;;;;;;;15.59;45.57;98056.09;4907661;29;20212;-94
2022/04/17 02:31:37;;;;;;;2.30;2.10;;;;;;;15.58;46.07;98041.69;4908978;23;20272;-94
2022/04/17 02:34:05;;;;;;;3.03;1.90;;;;;;;15.72;46.10;98096.59;4859232;29;20219;-94
2022/04/17 02:36:32;;;;;;;2.30;1.90;;;;;;;13.13;45.78;97689.81;4871049;29;20204;-93
2022/04/17 02:38:59;;;;;;;2.30;2.10;;;;;;;14.62;46.20;97859.38;4871033;29;20211;-92
2022/04/17 02:41:25;;;;;;;2.13;1.93;;;;;;;14.51;45.56;97933.69;4867499;29;20223;-94
2022/04/17 02:43:52;;;;;;;2.10;2.00;;;;;;;15.65;46.01;98035.31;4852372;29;20208;-94
2022/04/17 02:49:04;;;;;;;2.40;2.20;;;;;;;15.55;45.73;98036.44;4853984;29;20192;-94
2022/04/17 02:51:33;;;;;;;2.10;1.90;;;;;;;14.64;46.35;97855.28;4851916;29;20223;-94
2022/04/17 02:54:00;;;;;;;2.37;2.00;;;;;;;15.50;45.01;98021.72;4837003;29;20232;-94
2022/04/17 02:56:27;;;;;;;2.23;2.10;;;;;;;14.14;46.07;97832.66;4867436;29;20186;-93
2022/04/17 02:58:59;;;;;;;2.83;2.10;;;;;;;15.56;46.09;98014.50;4870116;29;20184;-93
2022/04/17 03:06:58;;;;;;;2.20;2.00;;;;;;;14.18;45.28;97806.84;4871542;29;20247;-92
2022/04/17 03:09:25;;;;;;;2.37;2.17;;;;;;;15.93;45.95;98140.97;4866079;29;20188;-93
2022/04/17 03:11:52;;;;;;;2.17;1.97;;;;;;;17.54;45.55;98408.81;4860376;29;20188;-94
2022/04/17 03:14:19;;;;;;;2.20;2.00;;;;;;;16.51;46.19;98205.34;4869144;29;20211;-93
2022/04/17 03:16:46;;;;;;;1.90;1.80;;;;;;;16.00;46.32;98105.09;4869520;29;20180;-93
2022/04/17 03:19:13;;;;;;;2.03;1.87;;;;;;;14.41;45.17;97815.06;4858262;29;20187;-93
2022/04/17 03:21:40;;;;;;;2.00;1.90;;;;;;;13.49;45.41;97658.44;4859773;29;20225;-94
2022/04/17 03:24:06;;;;;;;2.37;2.17;;;;;;;15.64;47.18;98090.19;4853905;29;20271;-92
2022/04/17 03:26:36;;;;;;;2.47;2.13;;;;;;;15.59;45.81;97999.47;4839961;29;20255;-93
2022/04/17 03:29:04;;;;;;;2.27;2.07;;;;;;;12.67;45.58;97516.13;4839255;29;20276;-93
2022/04/17 03:31:33;;;;;;;2.43;2.23;;;;;;;15.55;45.92;98011.09;4880897;29;20220;-92
2022/04/17 03:34:00;;;;;;;2.10;2.00;;;;;;;13.87;45.82;97709.69;4869383;29;20283;-93
2022/04/17 03:36:27;;;;;;;2.20;2.00;;;;;;;18.15;45.98;98493.84;4853888;29;20237;-93
2022/04/17 03:38:54;;;;;;;2.00;1.90;;;;;;;15.51;45.95;98054.75;4839958;29;20246;-91
2022/04/17 03:41:21;;;;;;;2.73;1.90;;;;;;;15.65;46.01;98053.03;4835403;29;20188;-92
2022/04/17 03:43:48;;;;;;;2.30;2.10;;;;;;;15.56;46.20;98039.81;4835855;29;20215;-93
2022/04/17 03:46:15;;;;;;;2.13;1.97;;;;;;;13.22;44.81;97667.69;4835961;29;20188;-94
2022/04/17 03:48:42;;;;;;;2.50;2.30;;;;;;;15.55;45.66;98023.78;4853046;29;20184;-94
2022/04/17 03:51:08;;;;;;;2.20;2.00;;;;;;;12.68;46.22;97556.56;4838735;29;20301;-93
2022/04/17 03:53:35;;;;;;;2.23;2.03;;;;;;;15.68;45.98;98064.25;4868995;29;20223;-94
2022/04/17 03:56:02;;;;;;;2.47;2.27;;;;;;;12.96;46.51;97597.03;4859620;29;20219;-93
2022/04/17 03:58:29;;;;;;;2.50;2.07;;;;;;;15.48;45.02;97991.25;4868408;29;20180;-94
2022/04/17 04:00:55;;;;;;;2.23;2.03;;;;;;;13.85;45.57;97713.75;4853243;29;20184;-93
2022/04/17 04:03:22;;;;;;;2.57;2.37;;;;;;;14.30;45.40;97813.53;4838593;29;20259;-91
2022/04/17 04:05:49;;;;;;;2.20;2.00;;;;;;;16.12;45.92;98131.16;4853802;29;20215;-93
2022/04/17 04:08:16;;;;;;;3.13;2.23;;;;;;;16.79;45.87;98245.16;4853610;29;20203;-91
2022/04/17 04:10:45;;;;;;;2.40;2.20;;;;;;;15.56;45.85;98038.19;4821660;29;20202;-94
2022/04/17 04:13:12;;;;;;;2.63;2.20;;;;;;;15.18;45.80;97974.16;4850036;29;20196;-94
2022/04/17 04:15:39;;;;;;;2.60;2.33;;;;;;;17.66;46.54;98428.22;4835507;29;20184;-93
2022/04/17 04:18:05;;;;;;;2.73;2.20;;;;;;;13.40;45.88;97610.81;4850161;29;20251;-93
2022/04/17 04:20:32;;;;;;;2.20;2.00;;;;;;;14.77;45.28;97863.63;4859024;29;20212;-94
2022/04/17 04:22:59;;;;;;;2.30;2.10;;;;;;;15.36;45.88;97989.59;4853805;29;20220;-93
2022/04/17 04:25:25;;;;;;;1.97;1.87;;;;;;;15.48;47.49;98030.91;4837374;29;20223;-91
2022/04/17 04:33:20;;;;;;;2.40;2.20;;;;;;;17.79;46.04;98377.28;4187188;27;20210;-94
2022/04/17 04:35:46;;;;;;;2.50;2.20;;;;;;;17.74;46.18;98413.41;4856567;29;20203;-93
2022/04/17 04:38:16;;;;;;;2.40;2.20;;;;;;;15.50;45.40;97977.03;4887106;29;20203;-91
2022/04/17 04:40:43;;;;;;;2.37;2.17;;;;;;;15.89;45.82;98075.69;4886522;29;20219;-93
2022/04/17 04:43:09;;;;;;;2.33;2.00;;;;;;;13.12;45.82;97603.94;4873835;29;20206;-93
2022/04/17 04:51:07;;;;;;;2.30;2.13;;;;;;;16.50;45.83;98186.72;4907681;29;20201;-90
2022/04/17 04:53:34;;;;;;;2.53;2.23;;;;;;;16.11;45.87;98108.25;4878081;29;20236;-94
2022/04/17 04:56:00;;;;;;;2.47;2.27;;;;;;;12.50;44.76;97456.25;4877636;29;20187;-94
2022/04/17 04:58:36;;;;;;;2.23;2.03;;;;;;;16.42;45.99;98150.72;4872984;29;20225;-95
2022/04/17 05:01:02;;;;;;;2.53;2.33;;;;;;;15.44;45.77;98023.88;4858941;29;20191;-93
2022/04/17 05:03:29;;;;;;;2.40;2.20;;;;;;;15.50;45.76;98014.13;4883770;29;20191;-93
2022/04/17 05:05:59;;;;;;;2.23;2.00;;;;;;;16.43;45.47;98169.34;4874033;29;20202;-93
2022/04/17 05:08:26;;;;;;;2.33;2.13;;;;;;;19.10;45.74;98601.19;4912908;29;20223;-94
2022/04/17 05:10:55;;;;;;;2.57;2.37;;;;;;;13.72;45.27;97724.78;4905591;29;20196;-94
2022/04/17 05:13:40;;;;;;;2.60;2.40;;;;;;;15.56;45.74;98035.66;4877510;29;20187;-90
2022/04/17 05:16:07;;;;;;;3.03;2.00;;;;;;;17.54;44.53;98341.09;4882596;29;20186;-92
2022/04/17 05:18:33;;;;;;;2.33;1.97;;;;;;;17.95;47.18;98474.00;4876441;29;20186;-91
2022/04/17 05:21:01;;;;;;;2.30;2.10;;;;;;;17.00;45.61;98238.81;4862067;29;20187;-93
2022/04/17 05:23:29;;;;;;;2.47;2.27;;;;;;;17.09;46.44;98272.34;4904370;29;20195;-92
2022/04/17 05:26:00;;;;;;;2.70;2.50;;;;;;;15.87;44.92;98079.78;4860800;29;20275;-93
2022/04/17 05:28:30;;;;;;;2.33;1.90;;;;;;;14.68;45.25;97885.84;4861589;29;20213;-93
2022/04/17 05:30:57;;;;;;;2.40;2.20;;;;;;;13.63;45.55;97638.34;4875372;29;20191;-94
2022/04/17 05:33:24;;;;;;;3.40;2.20;;;;;;;15.34;45.46;97943.06;4871832;29;20192;-92
2022/04/17 05:35:52;;;;;;;2.37;2.17;;;;;;;17.25;45.73;98330.88;4871369;29;20235;-94
2022/04/17 05:38:20;;;;;;;2.33;2.10;;;;;;;15.27;44.48;97946.88;4890664;29;20198;-92
2022/04/17 05:40:49;;;;;;;1.97;1.87;;;;;;;15.03;45.21;97916.66;4885059;29;20186;-92
2022/04/17 05:43:19;;;;;;;2.43;2.23;;;;;;;15.33;44.22;97997.00;4885264;29;20286;-93
2022/04/17 05:45:48;;;;;;;2.20;2.00;;;;;;;15.47;45.44;97986.97;4896508;29;20225;-92
2022/04/17 05:48:15;;;;;;;2.27;2.10;;;;;;;14.75;45.25;97936.91;4885041;29;20184;-93
2022/04/17 05:50:42;;;;;;;3.60;2.30;;;;;;;17.51;45.32;98373.06;4879095;29;20234;-90
2022/04/17 05:53:17;;;;;;;3.27;2.30;;;;;;;15.40;45.38;97983.97;4894413;29;20228;-93
2022/04/17 05:56:12;;;;;;;2.37;2.17;;;;;;;19.02;45.67;98617.72;4879930;29;20231;-94
2022/04/17 05:59:30;;;;;;;1.90;1.80;;;;;;;14.66;45.64;97825.03;4872968;29;20190;-92
2022/04/17 06:32:33;;;;;;;2.30;2.10;;;;;;;16.82;44.85;98174.28;3083212;27;20209;-91
2022/04/17 06:35:00;;;;;;;2.20;2.00;;;;;;;14.14;45.06;97699.63;4927399;28;20214;-93
2022/04/17 06:38:02;;;;;;;2.10;2.00;;;;;;;18.12;44.83;98393.59;4925016;29;20221;-93
2022/04/17 06:40:32;;;;;;;2.57;2.30;;;;;;;14.64;44.07;97784.47;4912849;29;20181;-91
2022/04/17 06:43:01;;;;;;;2.73;2.20;;;;;;;17.48;44.96;98304.28;4910745;29;20197;-92
2022/04/17 06:45:48;;;;;;;4.77;2.50;;;;;;;14.32;44.99;97796.81;4868278;29;20221;-91
2022/04/17 06:48:32;;;;;;;2.00;1.90;;;;;;;17.01;45.16;98265.06;4933898;29;20660;-92
2022/04/17 06:51:02;;;;;;;2.37;2.17;;;;;;;16.79;45.25;98179.19;4923726;29;20225;-90
2022/04/17 06:53:30;;;;;;;2.90;2.30;;;;;;;17.08;45.26;98262.97;4894638;29;20233;-92
2022/04/17 07:10:44;;;;;;;6.17;3.20;;;;;;;13.81;36.51;97712.72;4703903;27;20201;-92
2022/04/17 07:13:14;;;;;;;3.43;2.90;;;;;;;14.97;36.42;97896.94;4911030;29;20234;-92
2022/04/17 07:15:41;;;;;;;3.50;3.03;;;;;;;16.73;37.30;98183.91;4921077;29;20198;-92
2022/04/17 07:18:08;;;;;;;4.73;3.27;;;;;;;19.22;37.89;98627.34;4906156;29;20206;-92
2022/04/17 07:20:35;;;;;;;3.17;2.80;;;;;;;16.29;37.94;98110.19;4909678;29;20211;-92
2022/04/17 07:23:02;;;;;;;3.40;3.07;;;;;;;17.41;37.98;98319.94;4937001;29;20177;-92
2022/04/17 07:25:29;;;;;;;4.87;3.00;;;;;;;17.01;37.81;98229.50;4924104;29;20190;-92
2022/04/17 07:27:55;;;;;;;4.17;3.03;;;;;;;18.36;37.87;98467.88;4925306;29;20178;-93
2022/04/17 07:30:23;;;;;;;3.23;2.90;;;;;;;18.13;38.33;98429.31;4924888;29;20196;-93
2022/04/17 07:32:51;;;;;;;6.63;3.50;;;;;;;16.89;38.13;98214.44;4905727;29;20191;-92
2022/04/17 07:35:18;;;;;;;3.73;3.03;;;;;;;18.07;38.34;98416.25;4890441;29;20237;-93
2022/04/17 07:37:58;;;;;;;3.60;2.97;;;;;;;17.94;38.22;98393.41;4904402;29;20196;-93
2022/04/17 07:40:26;;;;;;;3.93;2.70;;;;;;;18.41;38.11;98463.97;4924340;29;20201;-92
2022/04/17 07:42:54;;;;;;;3.43;3.00;;;;;;;16.17;36.66;98104.41;4895371;29;20207;-88
2022/04/17 07:45:21;;;;;;;3.30;3.00;;;;;;;15.53;35.80;98019.38;4902800;29;20202;-93
2022/04/17 07:47:48;;;;;;;5.13;3.30;;;;;;;15.75;35.19;98028.34;4911408;29;20187;-92
2022/04/17 07:50:16;;;;;;;6.17;3.40;;;;;;;18.11;34.44;98456.31;4925839;29;20193;-93
2022/04/17 07:52:43;;;;;;;3.97;2.97;;;;;;;18.10;34.15;98463.84;4909168;29;20201;-94
2022/04/17 07:55:11;;;;;;;4.20;3.30;;;;;;;16.03;34.00;98073.97;4908881;29;20221;-93
2022/04/17 08:00:24;;;;;;;4.17;3.20;;;;;;;15.70;33.45;98080.44;4925445;29;20194;-92
2022/04/17 08:03:20;;;;;;;3.67;3.10;;;;;;;16.37;33.11;98156.31;4926535;28;20273;-92
2022/04/17 08:05:47;;;;;;;4.20;3.20;;;;;;;16.78;33.42;98205.31;4886851;29;20190;-94
2022/04/17 08:08:14;;;;;;;3.93;3.37;;;;;;;16.59;33.15;98174.59;4874820;29;20234;-93
2022/04/17 08:10:41;;;;;;;3.90;2.87;;;;;;;15.91;33.68;98065.63;4905113;29;20186;-92
2022/04/17 08:13:07;;;;;;;4.47;3.40;;;;;;;15.16;32.94;97931.84;4873307;29;20214;-90
2022/04/17 08:15:34;;;;;;;3.67;3.17;;;;;;;18.71;32.72;98586.22;4904216;29;20217;-93
2022/04/17 08:18:02;;;;;;;4.43;3.40;;;;;;;16.01;32.80;98104.28;4916958;29;20194;-93
2022/04/17 08:20:29;;;;;;;4.73;3.10;;;;;;;17.02;32.84;98262.59;4932181;29;20189;-92
2022/04/17 08:22:56;;;;;;;4.20;3.30;;;;;;;17.04;32.89;98262.69;4909395;29;20186;-91
2022/04/17 08:25:23;;;;;;;5.73;3.40;;;;;;;16.13;32.82;98102.47;4915203;29;20206;-93
2022/04/17 08:27:52;;;;;;;3.57;3.20;;;;;;;16.73;32.18;98246.47;4905734;29;20182;-92
2022/04/17 08:30:20;;;;;;;3.73;3.03;;;;;;;17.90;32.44;98409.31;4893609;29;20185;-91
2022/04/17 08:32:47;;;;;;;3.77;3.10;;;;;;;16.45;32.21;98155.13;4908114;29;20189;-92
2022/04/17 08:35:13;;;;;;;4.67;2.97;;;;;;;15.60;32.76;98034.19;4888996;29;20242;-90
2022/04/17 08:37:40;;;;;;;4.33;2.90;;;;;;;16.52;33.11;98161.47;4908836;29;20226;-93
2022/04/17 08:40:07;;;;;;;4.60;2.83;;;;;;;17.61;33.62;98348.28;4896336;29;20190;-91
2022/04/17 08:42:34;;;;;;;3.27;2.93;;;;;;;15.79;34.46;98047.16;4931644;29;20257;-92
2022/04/17 08:45:00;;;;;;;3.67;3.13;;;;;;;17.72;34.57;98359.06;4908305;29;20206;-90
2022/04/17 08:47:27;;;;;;;4.67;3.00;;;;;;;18.82;34.94;98544.41;4928062;29;20211;-91
2022/04/17 08:49:54;;;;;;;3.20;2.73;;;;;;;17.91;35.13;98364.38;4910396;29;20265;-91
2022/04/17 08:52:21;;;;;;;3.20;2.87;;;;;;;17.72;35.73;98354.88;4899873;29;20190;-90
2022/04/17 08:54:48;;;;;;;4.60;2.40;;;;;;;17.33;35.84;98283.94;4910090;29;20229;-91
2022/04/17 08:57:16;;;;;;;4.97;3.17;;;;;;;17.19;35.99;98221.28;4893003;29;20186;-91
2022/04/17 08:59:43;;;;;;;5.97;2.50;;;;;;;17.83;36.21;98330.91;4926511;29;20226;-93
2022/04/17 09:02:10;;;;;;;3.93;2.70;;;;;;;17.83;36.81;98318.19;4922696;29;20186;-93
2022/04/17 09:04:38;;;;;;;4.50;2.70;;;;;;;17.17;37.21;98224.53;4918772;29;20207;-92
2022/04/17 09:07:09;;;;;;;5.40;2.57;;;;;;;18.98;37.48;98518.13;4893962;29;20194;-91
2022/04/17 09:09:52;;;;;;;5.40;2.33;;;;;;;15.26;37.39;97883.47;4885883;29;20201;-93
2022/04/17 09:12:25;;;;;;;5.93;2.70;;;;;;;13.13;37.36;97467.81;4893458;29;20194;-93
2022/04/17 09:14:55;;;;;;;5.27;2.60;;;;;;;18.12;37.85;98366.47;4894029;29;20245;-91
2022/04/17 09:17:32;;;;;;;4.37;2.50;;;;;;;16.97;37.88;98156.50;4892936;29;20198;-91
2022/04/17 09:19:59;;;;;;;4.87;2.77;;;;;;;16.80;37.83;98136.88;4896556;29;20202;-91
2022/04/17 09:22:44;;;;;;;8.00;2.90;;;;;;;17.28;38.13;98182.81;4891143;29;20190;-92
2022/04/17 09:25:12;;;;;;;6.90;2.73;;;;;;;16.69;38.21;98120.19;4892827;29;20222;-93
2022/04/17 09:27:42;;;;;;;2.93;2.37;;;;;;;18.24;38.56;98333.22;4883997;29;20214;-92
2022/04/17 09:30:26;;;;;;;4.70;2.43;;;;;;;16.37;38.70;98030.38;4894666;29;20182;-93
2022/04/17 09:32:53;;;;;;;4.00;2.40;;;;;;;16.98;38.70;98108.34;4905400;29;20195;-93
2022/04/17 09:35:26;;;;;;;4.97;2.47;;;;;;;17.84;39.05;98268.22;4910323;29;20226;-93
2022/04/17 09:38:00;;;;;;;3.50;2.50;;;;;;;16.15;38.88;97950.44;4914493;29;20182;-93
2022/04/17 09:40:27;;;;;;;3.27;2.40;;;;;;;15.38;38.87;97811.69;4925779;29;20185;-90
2022/04/17 09:43:16;;;;;;;5.27;2.30;;;;;;;18.00;39.25;98260.66;4930374;29;20190;-91
2022/04/17 09:45:59;;;;;;;5.90;2.20;;;;;;;15.69;39.20;97854.84;4919641;29;20216;-91
2022/04/17 09:48:44;;;;;;;5.90;2.43;;;;;;;18.41;39.15;98360.47;4908596;29;20209;-90
2022/04/17 09:51:24;;;;;;;4.97;2.33;;;;;;;19.19;39.32;98470.88;4870854;29;20194;-89
2022/04/17 09:54:00;;;;;;;5.17;2.40;;;;;;;19.19;39.49;98471.72;4906771;29;20230;-90
2022/04/17 09:56:40;;;;;;;3.20;2.07;;;;;;;18.28;39.87;98317.31;4891855;29;20226;-91
2022/04/17 09:59:21;;;;;;;3.50;2.20;;;;;;;15.77;39.90;97864.63;4896195;29;20264;-90
2022/04/17 10:01:55;;;;;;;3.53;2.30;;;;;;;17.72;40.12;98198.91;4927413;29;20237;-89
2022/04/17 10:04:24;;;;;;;4.63;2.33;;;;;;;18.54;40.14;98346.75;4910037;29;20246;-89
2022/04/17 10:06:52;;;;;;;3.50;2.10;;;;;;;17.36;40.25;98146.91;4897169;29;20200;-91
2022/04/17 10:09:19;;;;;;;2.53;2.10;;;;;;;17.62;40.39;98178.88;4916891;29;20186;-89
2022/04/17 10:11:46;;;;;;;11.30;2.27;;;;;;;17.82;40.47;98196.94;4903972;29;20218;-91
2022/04/17 10:14:14;;;;;;;5.03;2.47;;;;;;;15.13;40.08;97772.19;4889414;29;20237;-90
2022/04/17 10:16:41;;;;;;;3.33;2.10;;;;;;;15.39;39.33;97802.41;4917426;29;20250;-90
2022/04/17 10:19:12;;;;;;;7.23;2.73;;;;;;;17.20;39.55;98092.66;4939750;29;20186;-91
2022/04/17 10:21:42;;;;;;;5.83;2.40;;;;;;;18.57;39.75;98327.44;4930894;29;20692;-91
2022/04/17 10:24:16;;;;;;;3.07;2.10;;;;;;;17.51;39.92;98141.81;4926053;29;20260;-90
2022/04/17 10:26:47;;;;;;;3.20;2.10;;;;;;;16.47;40.37;97975.13;4919846;29;20211;-91
2022/04/17 10:29:16;;;;;;;4.50;2.10;;;;;;;18.26;40.88;98262.06;4901460;29;20209;-89
2022/04/17 10:32:05;;;;;;;2.33;1.90;;;;;;;19.13;40.61;98415.34;4901726;29;20210;-90
2022/04/17 10:34:58;;;;;;;2.50;1.93;;;;;;;19.12;40.83;98411.06;4901975;29;20219;-90
2022/04/17 10:37:43;;;;;;;2.30;2.10;;;;;;;17.80;40.87;98206.16;4892008;29;20239;-90
2022/04/17 10:40:10;;;;;;;3.50;2.43;;;;;;;17.07;40.88;98059.72;4904080;29;20202;-91
2022/04/17 10:42:53;;;;;;;2.30;2.00;;;;;;;15.65;41.15;97803.13;4884170;29;20418;-90
2022/04/17 10:45:21;;;;;;;2.23;1.90;;;;;;;18.01;41.15;98219.16;4911004;29;20557;-90
2022/04/17 10:48:06;;;;;;;5.37;2.20;;;;;;;19.15;41.23;98407.78;4889155;29;20213;-91
2022/04/17 10:50:41;;;;;;;5.97;2.37;;;;;;;19.14;41.20;98404.38;4913080;29;20202;-93
2022/04/17 10:53:25;;;;;;;2.67;1.80;;;;;;;15.64;41.42;97838.50;4919173;29;20222;-93
2022/04/17 10:56:05;;;;;;;3.43;2.00;;;;;;;15.37;41.13;97766.00;4911634;29;20335;-91
2022/04/17 10:59:01;;;;;;;2.37;2.13;;;;;;;13.66;41.16;97464.31;4924326;29;20221;-95
2022/04/17 11:01:49;;;;;;;3.00;2.13;;;;;;;19.12;41.41;98390.66;4908433;29;20250;-92
2022/04/17 11:04:18;;;;;;;3.00;2.10;;;;;;;19.12;41.43;98384.69;4917924;29;20226;-91
2022/04/17 11:06:45;;;;;;;2.17;1.80;;;;;;;16.16;41.56;97874.47;4924043;29;20210;-94
2022/04/17 11:09:15;;;;;;;2.37;1.90;;;;;;;18.51;41.72;98288.06;4935755;29;20226;-95
2022/04/17 11:11:45;;;;;;;4.03;2.00;;;;;;;14.93;41.51;97717.88;4917436;29;20239;-93
2022/04/17 11:14:21;;;;;;;4.47;2.10;;;;;;;16.71;41.07;97979.91;4911414;29;20202;-95
2022/04/17 11:16:56;;;;;;;2.87;2.10;;;;;;;15.50;41.69;97756.66;4911714;29;20213;-94
2022/04/17 11:19:26;;;;;;;3.17;1.97;;;;;;;15.20;42.25;97719.47;4926703;29;20186;-93
2022/04/17 11:25:00;;;;;;;2.00;1.80;;;;;;;17.57;41.79;98096.41;5039318;23;20955;-92
2022/04/17 11:27:36;;;;;;;2.00;1.80;;;;;;;19.15;42.00;98362.81;4918796;29;20212;-93
2022/04/17 11:30:09;;;;;;;2.40;2.00;;;;;;;12.81;41.78;97337.22;4890063;29;20178;-93
2022/04/17 11:33:16;;;;;;;2.87;2.10;;;;;;;19.16;41.73;98350.94;4909025;29;20187;-92
2022/04/17 11:35:55;;;;;;;1.93;1.77;;;;;;;14.14;41.95;97484.81;4908925;29;20222;-94
2022/04/17 11:38:21;;;;;;;2.40;1.80;;;;;;;15.84;41.72;97783.09;4893034;29;20186;-91
2022/04/17 11:40:48;;;;;;;4.23;2.07;;;;;;;16.03;41.92;97815.41;4894745;29;20190;-93
2022/04/17 11:43:16;;;;;;;2.13;1.93;;;;;;;16.22;41.80;97846.03;4875365;29;20182;-91
2022/04/17 11:45:44;;;;;;;2.27;2.00;;;;;;;16.16;42.02;97836.44;4917893;29;20205;-91
2022/04/17 11:48:12;;;;;;;1.87;1.77;;;;;;;15.28;42.37;97737.63;4900121;29;20235;-91
2022/04/17 11:50:39;;;;;;;1.97;1.70;;;;;;;17.21;42.23;98013.09;4887091;29;20205;-94
2022/04/17 11:53:12;;;;;;;1.83;1.70;;;;;;;18.13;42.65;98219.81;4904363;29;20194;-93
2022/04/17 11:55:40;;;;;;;2.30;2.07;;;;;;;15.19;41.88;97659.47;4864868;29;20293;-92
2022/04/17 11:58:21;;;;;;;2.10;1.90;;;;;;;12.74;41.95;97218.28;4868898;29;20201;-90
2022/04/17 12:00:59;;;;;;;2.60;1.97;;;;;;;14.79;42.03;97568.59;4875562;29;20190;-91
2022/04/17 12:03:44;;;;;;;2.77;1.90;;;;;;;14.43;42.47;97519.38;4868745;29;20197;-92
2022/04/17 12:06:11;;;;;;;2.30;1.83;;;;;;;15.34;42.27;97702.50;4883800;29;20198;-92
2022/04/17 12:08:48;;;;;;;2.57;1.80;;;;;;;15.41;42.18;97765.41;4870967;29;20241;-91
2022/04/17 12:11:17;;;;;;;3.17;1.87;;;;;;;16.69;41.79;97879.09;4866950;29;21391;-90
2022/04/17 12:13:54;;;;;;;3.20;2.00;;;;;;;12.83;42.76;97262.56;4869492;29;20214;-90
2022/04/17 12:16:24;;;;;;;2.90;1.80;;;;;;;15.29;42.28;97671.00;4881304;29;20214;-91
2022/04/17 12:18:57;;;;;;;3.13;1.90;;;;;;;17.57;42.01;98110.00;4880407;29;20254;-91
2022/04/17 12:21:30;;;;;;;2.77;1.70;;;;;;;13.40;42.21;97299.50;4882748;29;20265;-91
2022/04/17 12:24:00;;;;;;;3.30;1.90;;;;;;;12.79;42.24;97192.53;4878781;29;20248;-92
2022/04/17 12:26:29;;;;;;;4.50;1.60;;;;;;;13.92;42.36;97418.69;4882238;29;20211;-92
2022/04/17 12:28:56;;;;;;;2.47;1.90;;;;;;;17.05;43.17;98024.09;4913698;29;20194;-90
2022/04/17 12:31:33;;;;;;;1.90;1.80;;;;;;;14.17;42.43;97500.16;4882806;29;20186;-93
2022/04/17 12:34:22;;;;;;;2.20;2.00;;;;;;;13.41;42.79;97317.25;4898879;29;20325;-93
2022/04/17 12:36:57;;;;;;;2.13;1.50;;;;;;;12.87;42.06;97218.19;4883509;29;20218;-91
2022/04/17 12:39:31;;;;;;;3.50;1.60;;;;;;;15.28;43.00;97649.00;4883299;29;20226;-93
2022/04/17 12:41:58;;;;;;;2.20;1.63;;;;;;;15.49;42.42;97683.16;4866383;29;20218;-92
2022/04/17 12:44:34;;;;;;;1.83;1.73;;;;;;;18.17;41.41;98186.09;4881712;29;20214;-92
2022/04/17 12:47:15;;;;;;;1.77;1.67;;;;;;;14.95;42.36;97554.34;4868587;29;20214;-90
2022/04/17 12:49:58;;;;;;;3.50;1.70;;;;;;;15.49;41.96;97657.81;4881389;29;20198;-92
2022/04/17 12:52:25;;;;;;;1.87;1.50;;;;;;;13.01;42.36;97251.81;4882221;29;20194;-90
2022/04/17 12:54:56;;;;;;;3.07;1.83;;;;;;;15.10;42.17;97567.84;4883779;29;20217;-91
2022/04/17 12:57:26;;;;;;;2.77;1.70;;;;;;;15.29;42.15;97625.44;4867317;29;20237;-94
2022/04/17 12:59:53;;;;;;;2.00;1.80;;;;;;;13.06;42.60;97190.78;4898207;29;20217;-92
2022/04/17 13:02:25;;;;;;;2.13;1.83;;;;;;;15.27;42.63;97610.16;4911357;29;20186;-90
2022/04/17 13:05:02;;;;;;;3.57;1.60;;;;;;;17.74;42.70;98081.25;4868573;29;20228;-92
2022/04/17 13:07:33;;;;;;;2.60;1.80;;;;;;;13.95;42.55;97367.50;4868510;29;20206;-93
2022/04/17 13:10:08;;;;;;;2.30;1.80;;;;;;;15.49;42.21;97689.09;4880894;29;20218;-91
2022/04/17 13:12:47;;;;;;;2.07;1.60;;;;;;;15.03;42.76;97529.47;4879772;29;20218;-91
2022/04/17 13:15:33;;;;;;;2.90;1.80;;;;;;;14.92;42.55;97583.69;4882986;29;20206;-89
2022/04/17 13:18:10;;;;;;;3.10;1.47;;;;;;;17.97;42.82;98075.69;4867977;29;20257;-93
2022/04/17 13:20:46;;;;;;;3.20;1.80;;;;;;;14.29;42.55;97434.28;4867090;29;20262;-92
2022/04/17 13:23:16;;;;;;;2.23;1.70;;;;;;;15.42;43.27;97589.91;4864892;29;20209;-94
2022/04/17 13:25:48;;;;;;;2.00;1.80;;;;;;;15.51;42.72;97610.66;4871905;29;20724;-94